Time;durP1;ratioP1;P1;durP2;ratioP2;P2;SDS_P1;SDS_P2;PMS_P1;PMS_P2;Temp;Humidity;BMP_temperature;BMP_pressure;BME280_temperature;BME280_humidity;BME280_pressure;Samples;Min_cycle;Max_cycle;Signal;HPM_P1;HPM_P2
2022/04/17 00:01:44;;;;;;;6.10;2.80;;;9.80;53.40;;;;;;5071885;28;20028;-81
2022/04/17 00:04:13;;;;;;;4.80;2.37;;;9.80;53.60;;;;;;5078077;28;20028;-81
2022/04/17 00:06:38;;;;;;;5.43;2.50;;;9.80;53.70;;;;;;5076449;28;20063;-81
2022/04/17 00:09:04;;;;;;;6.23;3.00;;;9.70;53.90;;;;;;5076385;28;20445;-81
2022/04/17 00:11:30;;;;;;;6.47;2.87;;;9.60;54.00;;;;;;5076140;28;20020;-82
2022/04/17 00:13:58;;;;;;;5.60;2.50;;;9.60;54.20;;;;;;5075838;28;20052;-81
2022/04/17 00:16:24;;;;;;;6.70;2.57;;;9.50;54.30;;;;;;5076076;28;20074;-81
2022/04/17 00:18:49;;;;;;;6.97;2.90;;;9.40;54.40;;;;;;5075888;28;20033;-81
2022/04/17 00:21:15;;;;;;;7.27;3.13;;;9.50;54.60;;;;;;5076213;28;20021;-81
2022/04/17 00:23:43;;;;;;;5.87;3.13;;;9.40;55.30;;;;;;5076182;28;20449;-81
2022/04/17 00:26:09;;;;;;;8.70;3.10;;;9.30;54.90;;;;;;5057813;28;20485;-81
2022/04/17 00:28:35;;;;;;;6.70;2.83;;;9.30;55.00;;;;;;5040592;28;20024;-81
2022/04/17 00:31:01;;;;;;;5.37;2.70;;;9.30;55.20;;;;;;5058611;28;20055;-81
2022/04/17 00:33:26;;;;;;;6.83;3.40;;;9.20;55.30;;;;;;5076209;28;20060;-82
2022/04/17 00:35:52;;;;;;;5.47;2.67;;;9.20;55.40;;;;;;5058121;28;20027;-82
2022/04/17 00:38:18;;;;;;;6.43;3.10;;;9.20;55.50;;;;;;5075764;28;20101;-81
2022/04/17 00:40:44;;;;;;;6.67;3.30;;;9.10;55.60;;;;;;5050098;28;20039;-81
2022/04/17 00:43:25;;;;;;;7.13;3.30;;;9.10;55.80;;;;;;5095824;28;20423;-82
2022/04/17 00:45:54;;;;;;;7.83;3.03;;;9.00;55.90;;;;;;5095900;28;20510;-81
2022/04/17 00:48:20;;;;;;;6.17;2.90;;;9.00;56.00;;;;;;5077546;28;20055;-81
2022/04/17 00:50:46;;;;;;;6.03;3.07;;;8.90;56.00;;;;;;5086101;28;20129;-81
2022/04/17 00:53:12;;;;;;;6.43;3.33;;;9.00;56.10;;;;;;5041034;28;20028;-81
2022/04/17 00:55:40;;;;;;;8.17;3.30;;;9.00;56.40;;;;;;5040952;28;20025;-81
2022/04/17 00:58:06;;;;;;;6.57;3.03;;;8.90;56.40;;;;;;5075210;28;20051;-81
2022/04/17 01:00:33;;;;;;;6.67;3.03;;;8.90;56.60;;;;;;5057588;28;20485;-81
2022/04/17 01:02:59;;;;;;;7.00;3.07;;;8.90;56.60;;;;;;5057499;28;20029;-81
2022/04/17 01:05:24;;;;;;;7.80;3.67;;;8.80;56.70;;;;;;5075550;28;20025;-81
2022/04/17 01:07:51;;;;;;;6.90;3.50;;;8.80;57.00;;;;;;5057230;28;20025;-82
2022/04/17 01:10:18;;;;;;;8.67;4.17;;;8.80;57.10;;;;;;5057459;28;20025;-81
2022/04/17 01:12:44;;;;;;;5.53;3.00;;;8.70;57.10;;;;;;5057373;28;20024;-81
2022/04/17 01:15:11;;;;;;;11.27;3.83;;;8.70;57.00;;;;;;5057344;28;20101;-81
2022/04/17 01:17:37;;;;;;;7.90;3.67;;;8.70;57.10;;;;;;5040455;28;20040;-81
2022/04/17 01:20:04;;;;;;;7.90;3.20;;;8.70;57.20;;;;;;5056929;28;20500;-81
2022/04/17 01:22:29;;;;;;;6.27;3.60;;;8.60;57.20;;;;;;5056924;28;20024;-81
2022/04/17 01:27:40;;;;;;;;;;;8.60;57.40;;;;;;5075491;28;20535;-81
2022/04/17 01:30:06;;;;;;;7.43;3.50;;;8.50;57.60;;;;;;5073388;28;19909;-81
2022/04/17 01:32:32;;;;;;;6.03;3.23;;;8.50;57.30;;;;;;5056835;28;20047;-81
2022/04/17 01:34:58;;;;;;;7.00;3.47;;;8.40;57.60;;;;;;5053865;28;20369;-81
2022/04/17 01:37:23;;;;;;;7.47;3.73;;;8.40;57.80;;;;;;5094868;28;20448;-81
2022/04/17 01:39:49;;;;;;;9.83;3.37;;;8.40;58.00;;;;;;5055701;28;20127;-81
2022/04/17 01:42:16;;;;;;;12.20;4.30;;;8.40;58.20;;;;;;5074495;28;20414;-81
2022/04/17 01:44:42;;;;;;;9.70;4.63;;;8.30;58.30;;;;;;5090066;28;20020;-81
2022/04/17 01:47:08;;;;;;;7.23;3.83;;;8.30;58.40;;;;;;5074350;28;20473;-81
2022/04/17 01:49:34;;;;;;;6.53;3.77;;;8.30;58.40;;;;;;5062482;28;20039;-82
2022/04/17 01:52:01;;;;;;;5.83;3.37;;;8.30;58.60;;;;;;5094558;28;20373;-81
2022/04/17 01:54:27;;;;;;;8.77;4.47;;;8.20;58.70;;;;;;5076277;28;20028;-81
2022/04/17 01:56:54;;;;;;;8.50;4.00;;;8.20;58.80;;;;;;5094527;28;20035;-81
2022/04/17 01:59:20;;;;;;;7.47;3.90;;;8.20;59.00;;;;;;5090589;28;20518;-81
2022/04/17 02:01:46;;;;;;;9.37;4.00;;;8.10;59.70;;;;;;5056358;28;20037;-81
2022/04/17 02:04:13;;;;;;;7.30;3.80;;;8.10;59.30;;;;;;5074299;28;20020;-81
2022/04/17 02:06:42;;;;;;;8.90;4.07;;;8.10;59.30;;;;;;5074065;28;20021;-81
2022/04/17 02:09:11;;;;;;;10.73;4.20;;;8.00;59.40;;;;;;5076193;28;20479;-81
2022/04/17 02:11:38;;;;;;;7.07;3.93;;;8.00;59.50;;;;;;5075994;28;20034;-81
2022/04/17 02:14:06;;;;;;;9.63;4.10;;;8.00;59.70;;;;;;5093908;28;20119;-81
2022/04/17 02:16:31;;;;;;;9.30;4.53;;;8.00;59.80;;;;;;5094084;28;20035;-81
2022/04/17 02:18:58;;;;;;;11.10;4.37;;;7.90;59.80;;;;;;5093801;28;20028;-80
2022/04/17 02:21:24;;;;;;;9.00;4.53;;;7.90;59.90;;;;;;5092155;28;20039;-75
2022/04/17 02:23:50;;;;;;;10.37;4.43;;;7.80;60.10;;;;;;5073708;28;20040;-75
2022/04/17 02:26:17;;;;;;;10.13;4.67;;;7.80;60.20;;;;;;5093736;28;20104;-75
2022/04/17 02:28:42;;;;;;;8.73;4.90;;;7.80;60.30;;;;;;5093225;28;20020;-75
2022/04/17 02:31:09;;;;;;;8.47;4.57;;;7.70;60.40;;;;;;5065143;28;20350;-75
2022/04/17 02:33:37;;;;;;;8.83;4.70;;;7.70;61.10;;;;;;5087179;28;20484;-81
2022/04/17 02:36:02;;;;;;;9.93;5.23;;;7.70;60.60;;;;;;5093926;28;20024;-81
2022/04/17 02:38:28;;;;;;;9.57;4.93;;;7.70;60.70;;;;;;5058997;28;20028;-81
2022/04/17 02:40:54;;;;;;;9.53;5.17;;;7.60;60.90;;;;;;5057335;28;20415;-81
2022/04/17 02:43:20;;;;;;;9.43;4.53;;;7.60;61.00;;;;;;5055494;28;20059;-81
2022/04/17 02:45:46;;;;;;;9.80;5.27;;;7.60;61.20;;;;;;5055633;28;20020;-81
2022/04/17 02:48:12;;;;;;;9.87;6.10;;;7.60;61.20;;;;;;5073478;28;20085;-81
2022/04/17 02:50:38;;;;;;;10.27;5.27;;;7.50;61.40;;;;;;5088485;28;20537;-81
2022/04/17 02:53:04;;;;;;;9.83;5.77;;;7.50;61.60;;;;;;5075149;28;20403;-81
2022/04/17 02:55:30;;;;;;;11.07;5.57;;;7.50;61.60;;;;;;5075350;28;20031;-80
2022/04/17 02:57:56;;;;;;;9.13;5.10;;;7.50;61.70;;;;;;5093513;28;20066;-81
2022/04/17 03:00:23;;;;;;;10.90;6.00;;;7.50;61.70;;;;;;5093085;28;20333;-81
2022/04/17 03:05:36;;;;;;;9.93;6.03;;;7.40;62.00;;;;;;5093516;28;20089;-81
2022/04/17 03:08:02;;;;;;;11.20;5.73;;;7.40;62.20;;;;;;5076060;28;20032;-81
2022/04/17 03:10:27;;;;;;;9.93;5.97;;;7.30;62.30;;;;;;5058397;28;20024;-81
2022/04/17 03:12:53;;;;;;;9.67;4.73;;;7.30;62.30;;;;;;5073191;28;20035;-81
2022/04/17 03:15:19;;;;;;;11.67;6.53;;;7.30;62.30;;;;;;5073085;28;20060;-81
2022/04/17 03:17:44;;;;;;;10.40;5.30;;;7.30;62.50;;;;;;5073143;28;20081;-81
2022/04/17 03:20:10;;;;;;;11.83;5.70;;;7.30;63.30;;;;;;5055223;28;20029;-81
2022/04/17 03:22:41;;;;;;;9.50;5.10;;;7.20;62.60;;;;;;5073182;28;20029;-81
2022/04/17 03:25:07;;;;;;;12.17;6.67;;;7.20;62.70;;;;;;5073143;28;20029;-81
2022/04/17 03:27:33;;;;;;;10.73;5.93;;;7.10;62.70;;;;;;5072960;28;20060;-80
2022/04/17 03:29:59;;;;;;;11.13;6.10;;;7.10;62.80;;;;;;5038400;28;20021;-81
2022/04/17 03:32:25;;;;;;;10.87;6.20;;;7.10;62.90;;;;;;5073249;28;20096;-81
2022/04/17 03:34:50;;;;;;;12.20;6.30;;;7.10;63.00;;;;;;5055164;28;20106;-81
2022/04/17 03:37:16;;;;;;;13.50;6.60;;;7.10;63.10;;;;;;5072958;28;20032;-81
2022/04/17 03:39:43;;;;;;;10.90;6.17;;;7.00;63.30;;;;;;5055194;28;20048;-81
2022/04/17 03:42:08;;;;;;;11.37;6.00;;;7.00;63.30;;;;;;5054954;28;20115;-80
2022/04/17 03:44:34;;;;;;;11.30;5.73;;;7.00;63.40;;;;;;5072858;28;20048;-81
2022/04/17 03:47:01;;;;;;;12.83;6.33;;;7.00;63.50;;;;;;5072964;28;20480;-81
2022/04/17 03:49:29;;;;;;;10.83;6.00;;;6.90;63.40;;;;;;5054724;28;20115;-81
2022/04/17 03:51:55;;;;;;;12.13;6.87;;;6.90;63.50;;;;;;5072836;28;20115;-80
2022/04/17 03:54:20;;;;;;;12.50;5.80;;;6.90;63.40;;;;;;5054994;28;20099;-81
2022/04/17 03:56:47;;;;;;;14.50;7.20;;;6.90;63.40;;;;;;5038082;28;20033;-81
2022/04/17 03:59:14;;;;;;;11.93;6.73;;;6.90;63.40;;;;;;5083028;28;20437;-81
2022/04/17 04:01:40;;;;;;;11.50;6.03;;;6.90;63.40;;;;;;5092932;28;20055;-81
2022/04/17 04:04:08;;;;;;;11.37;6.90;;;6.90;63.30;;;;;;5094939;28;20031;-81
2022/04/17 04:06:34;;;;;;;12.43;6.70;;;6.80;63.30;;;;;;5096655;28;20052;-80
2022/04/17 04:09:00;;;;;;;11.17;6.83;;;6.80;63.30;;;;;;5096686;28;20056;-81
2022/04/17 04:11:26;;;;;;;13.33;6.67;;;6.80;63.50;;;;;;5096576;28;20032;-80
2022/04/17 04:13:52;;;;;;;12.87;6.43;;;6.80;63.40;;;;;;5096690;28;20048;-81
2022/04/17 04:16:18;;;;;;;11.57;6.47;;;6.80;63.30;;;;;;5096457;28;20033;-80
2022/04/17 04:18:43;;;;;;;11.80;6.30;;;6.70;63.40;;;;;;5078243;28;20028;-81
2022/04/17 04:21:09;;;;;;;12.63;6.30;;;6.70;63.60;;;;;;5062035;28;20039;-80
2022/04/17 04:23:35;;;;;;;9.30;5.77;;;6.70;63.60;;;;;;5058090;28;20025;-80
2022/04/17 04:26:02;;;;;;;13.10;6.80;;;6.70;63.60;;;;;;5076069;28;20028;-81
2022/04/17 04:28:36;;;;;;;11.77;6.17;;;6.70;63.50;;;;;;5075724;28;20028;-81
2022/04/17 04:31:03;;;;;;;13.82;7.07;;;6.70;63.50;;;;;;5075951;28;20488;-80
2022/04/17 04:33:31;;;;;;;12.30;6.30;;;6.70;63.60;;;;;;5076166;28;20043;-83
2022/04/17 04:36:00;;;;;;;13.40;6.20;;;6.70;63.50;;;;;;5041616;28;20035;-80
2022/04/17 04:38:26;;;;;;;16.10;7.20;;;6.70;63.50;;;;;;5083807;28;20028;-80
2022/04/17 04:40:52;;;;;;;13.40;6.80;;;6.70;63.50;;;;;;5077203;28;20114;-81
2022/04/17 04:43:17;;;;;;;13.30;7.33;;;6.70;63.50;;;;;;5077775;28;20067;-81
2022/04/17 04:51:13;;;;;;;9.68;6.20;;;6.70;63.50;;;;;;5080566;28;20039;-81
2022/04/17 04:53:39;;;;;;;13.50;6.43;;;6.70;63.50;;;;;;5077635;28;20024;-80
2022/04/17 04:56:05;;;;;;;10.97;6.13;;;6.70;63.50;;;;;;5095727;28;20057;-81
2022/04/17 04:58:31;;;;;;;11.40;6.13;;;6.70;63.40;;;;;;5066507;28;20020;-81
2022/04/17 05:00:56;;;;;;;15.80;7.20;;;6.70;63.50;;;;;;5075668;28;20039;-80
2022/04/17 05:03:22;;;;;;;13.77;6.50;;;6.60;63.30;;;;;;5057544;28;20040;-81
2022/04/17 05:05:48;;;;;;;12.40;6.33;;;6.60;63.50;;;;;;5075310;28;20043;-80
2022/04/17 05:08:13;;;;;;;12.47;6.50;;;6.70;63.60;;;;;;5057187;28;20071;-80
2022/04/17 05:10:39;;;;;;;13.83;6.47;;;6.70;63.60;;;;;;5057319;28;20032;-79
2022/04/17 05:13:05;;;;;;;12.57;6.70;;;6.70;63.60;;;;;;5057441;28;20040;-82
2022/04/17 05:15:30;;;;;;;11.07;6.00;;;6.70;63.70;;;;;;5074646;28;20053;-80
2022/04/17 05:17:56;;;;;;;12.57;5.80;;;6.80;63.70;;;;;;5066019;28;20025;-82
2022/04/17 05:20:22;;;;;;;11.90;6.73;;;6.80;63.60;;;;;;5078238;28;20173;-81
2022/04/17 05:22:56;;;;;;;10.77;5.93;;;6.80;63.50;;;;;;5095204;28;20032;-81
2022/04/17 05:25:22;;;;;;;10.57;6.13;;;6.80;63.50;;;;;;5076961;28;20036;-81
2022/04/17 05:27:47;;;;;;;13.07;7.80;;;6.80;63.50;;;;;;5094889;28;20031;-80
2022/04/17 05:30:13;;;;;;;13.17;6.77;;;6.80;63.40;;;;;;5060008;28;20464;-81
2022/04/17 05:32:40;;;;;;;11.17;5.97;;;6.90;63.40;;;;;;5060183;28;20024;-82
2022/04/17 05:35:06;;;;;;;12.27;6.97;;;6.90;63.30;;;;;;5076706;28;20020;-76
2022/04/17 05:37:32;;;;;;;13.80;7.20;;;6.90;63.30;;;;;;5069532;28;20067;-76
2022/04/17 05:39:57;;;;;;;12.00;6.53;;;7.00;63.30;;;;;;5056482;28;20053;-76
2022/04/17 05:42:23;;;;;;;13.00;6.97;;;7.00;63.30;;;;;;5074299;28;20472;-76
2022/04/17 05:44:50;;;;;;;14.87;6.77;;;7.10;63.30;;;;;;5074141;28;20032;-76
2022/04/17 05:47:15;;;;;;;11.70;6.47;;;7.10;63.20;;;;;;5074522;28;20024;-76
2022/04/17 05:49:42;;;;;;;13.10;6.93;;;7.20;63.20;;;;;;5086281;28;20062;-76
2022/04/17 05:52:07;;;;;;;12.67;7.50;;;7.20;63.10;;;;;;5076443;28;20035;-76
2022/04/17 05:54:33;;;;;;;13.43;7.17;;;7.20;63.10;;;;;;5076164;28;20024;-76
2022/04/17 05:57:00;;;;;;;13.53;6.70;;;7.30;63.10;;;;;;5075252;28;20027;-76
2022/04/17 05:59:25;;;;;;;12.13;6.77;;;7.40;63.00;;;;;;5076320;28;20032;-76
2022/04/17 06:01:51;;;;;;;15.33;7.90;;;7.40;62.90;;;;;;5094583;28;20072;-75
2022/04/17 06:04:17;;;;;;;11.50;6.17;;;7.40;63.00;;;;;;5094861;28;20376;-75
2022/04/17 06:06:42;;;;;;;13.37;7.10;;;7.50;62.90;;;;;;5093246;28;20024;-76
2022/04/17 06:09:08;;;;;;;14.80;7.13;;;7.40;62.90;;;;;;5068987;28;20078;-75
2022/04/17 06:11:34;;;;;;;11.00;6.57;;;7.50;62.90;;;;;;5073092;28;20032;-75
2022/04/17 06:14:00;;;;;;;12.83;6.60;;;7.40;62.70;;;;;;5054778;28;20087;-75
2022/04/17 06:16:25;;;;;;;12.70;6.87;;;7.50;62.80;;;;;;5072704;28;20040;-75
2022/04/17 06:18:51;;;;;;;11.67;6.60;;;7.60;62.80;;;;;;5085470;28;20036;-76
2022/04/17 06:21:18;;;;;;;13.37;7.00;;;7.60;62.70;;;;;;5093889;28;20036;-75
2022/04/17 06:23:43;;;;;;;12.07;7.20;;;7.70;62.70;;;;;;5093115;28;20031;-76
2022/04/17 06:26:09;;;;;;;12.70;6.37;;;7.70;62.60;;;;;;5093042;28;20032;-75
2022/04/17 06:28:36;;;;;;;13.10;6.57;;;7.70;62.50;;;;;;5075643;28;20059;-75
2022/04/17 06:31:03;;;;;;;12.00;5.93;;;7.80;62.40;;;;;;5073692;28;20031;-76
2022/04/17 06:33:29;;;;;;;13.13;7.10;;;7.80;62.40;;;;;;5073340;28;20031;-75
2022/04/17 06:35:55;;;;;;;14.90;5.93;;;7.80;62.40;;;;;;5075169;28;20054;-76
2022/04/17 06:38:20;;;;;;;12.13;6.83;;;7.80;62.30;;;;;;5093339;28;20496;-76
2022/04/17 06:40:46;;;;;;;10.80;6.50;;;7.90;62.40;;;;;;5072829;28;20032;-75
2022/04/17 06:43:12;;;;;;;12.73;6.80;;;7.90;62.40;;;;;;5073430;28;20028;-75
2022/04/17 06:45:40;;;;;;;11.43;6.63;;;7.90;62.40;;;;;;5059876;28;20024;-76
2022/04/17 06:48:12;;;;;;;11.73;6.20;;;7.90;62.40;;;;;;5092928;28;20388;-75
2022/04/17 06:50:38;;;;;;;12.33;6.97;;;8.00;62.40;;;;;;5075706;28;20442;-76
2022/04/17 06:53:04;;;;;;;12.37;6.50;;;8.00;62.40;;;;;;5093884;28;20405;-75
2022/04/17 06:55:30;;;;;;;11.50;6.50;;;8.00;62.30;;;;;;5058446;28;20542;-75
2022/04/17 06:57:56;;;;;;;10.90;6.07;;;8.10;62.20;;;;;;5073754;28;20040;-76
2022/04/17 07:00:22;;;;;;;9.37;5.57;;;8.10;62.30;;;;;;5073571;28;20029;-75
2022/04/17 07:02:48;;;;;;;11.77;5.97;;;8.20;62.30;;;;;;5078151;28;20099;-75
2022/04/17 07:05:14;;;;;;;11.63;6.73;;;8.20;62.30;;;;;;5093218;28;20111;-75
2022/04/17 07:07:40;;;;;;;10.20;6.50;;;8.30;62.20;;;;;;5075597;28;20028;-75
2022/04/17 07:10:09;;;;;;;11.57;6.50;;;8.30;62.30;;;;;;5075309;28;20456;-75
2022/04/17 07:12:34;;;;;;;10.40;5.77;;;8.30;62.10;;;;;;5075710;28;20542;-76
2022/04/17 07:15:01;;;;;;;10.67;5.77;;;8.40;62.10;;;;;;5091862;28;20052;-74
2022/04/17 07:17:40;;;;;;;12.10;6.07;;;8.50;62.20;;;;;;5075101;28;20028;-75
2022/04/17 07:20:07;;;;;;;10.37;6.30;;;8.50;62.40;;;;;;5058600;28;20020;-75
2022/04/17 07:22:34;;;;;;;10.80;5.77;;;8.50;62.70;;;;;;5093692;28;20020;-76
2022/04/17 07:25:01;;;;;;;10.93;5.87;;;8.60;62.60;;;;;;5075177;28;20028;-75
2022/04/17 07:27:41;;;;;;;10.10;5.10;;;8.70;62.80;;;;;;5074873;28;20028;-75
2022/04/17 07:30:21;;;;;;;9.83;5.47;;;8.60;62.80;;;;;;5075251;28;20094;-75
2022/04/17 07:32:49;;;;;;;10.20;5.23;;;8.70;62.80;;;;;;5093196;28;20057;-76
2022/04/17 07:35:17;;;;;;;6.23;3.87;;;8.80;62.60;;;;;;5058877;28;20032;-75
2022/04/17 07:37:47;;;;;;;9.23;4.43;;;8.80;62.50;;;;;;5057001;28;20029;-75
2022/04/17 07:40:15;;;;;;;7.20;4.20;;;8.80;62.40;;;;;;5058740;28;20116;-75
2022/04/17 07:42:42;;;;;;;8.17;4.43;;;8.90;61.90;;;;;;5058892;28;20059;-75
2022/04/17 07:45:09;;;;;;;9.13;4.63;;;9.00;61.70;;;;;;5074649;28;20028;-75
2022/04/17 07:47:35;;;;;;;9.10;4.10;;;9.00;61.70;;;;;;5058584;28;20032;-75
2022/04/17 07:50:00;;;;;;;7.80;4.47;;;9.10;61.60;;;;;;5058539;28;20077;-74
2022/04/17 07:52:26;;;;;;;10.17;4.33;;;9.10;61.30;;;;;;5042218;28;20021;-75
2022/04/17 07:54:52;;;;;;;7.90;4.30;;;9.10;61.40;;;;;;5058582;28;20475;-74
2022/04/17 07:57:17;;;;;;;8.80;4.03;;;9.20;61.10;;;;;;5041960;28;20056;-76
2022/04/17 07:59:43;;;;;;;7.77;4.27;;;9.30;61.40;;;;;;5077016;28;20032;-76
2022/04/17 08:02:21;;;;;;;8.37;4.40;;;9.30;61.10;;;;;;5096243;28;20123;-74
2022/04/17 08:04:51;;;;;;;6.97;4.30;;;9.40;60.90;;;;;;5094775;28;20371;-75
2022/04/17 08:07:18;;;;;;;8.57;4.47;;;9.40;60.80;;;;;;5096554;28;20039;-75
2022/04/17 08:09:44;;;;;;;10.13;4.30;;;9.50;61.00;;;;;;5096742;28;20460;-75
2022/04/17 08:12:10;;;;;;;7.50;4.00;;;9.50;61.30;;;;;;5078411;28;20086;-76
2022/04/17 08:14:36;;;;;;;8.57;3.87;;;9.60;61.20;;;;;;5061136;28;20089;-75
2022/04/17 08:17:03;;;;;;;11.07;4.37;;;9.70;60.80;;;;;;5058790;28;20115;-75
2022/04/17 08:19:31;;;;;;;9.73;4.80;;;9.70;60.90;;;;;;5096066;28;20383;-74
2022/04/17 08:21:58;;;;;;;9.47;3.57;;;9.80;61.10;;;;;;5096050;28;20031;-76
2022/04/17 08:24:23;;;;;;;8.97;4.00;;;9.90;61.40;;;;;;5095263;28;20040;-76
2022/04/17 08:26:49;;;;;;;7.67;3.60;;;10.00;61.30;;;;;;5078172;28;20039;-75
2022/04/17 08:29:17;;;;;;;7.10;3.77;;;10.00;61.60;;;;;;5078571;28;20114;-74
2022/04/17 08:31:42;;;;;;;8.13;4.20;;;10.10;61.00;;;;;;5061714;28;20028;-74
2022/04/17 08:34:08;;;;;;;7.73;3.80;;;10.30;61.60;;;;;;5057845;28;20016;-74
2022/04/17 08:36:34;;;;;;;8.63;4.50;;;10.20;60.80;;;;;;5053269;28;20142;-78
2022/04/17 08:38:59;;;;;;;9.73;4.07;;;10.30;60.80;;;;;;5096058;28;20369;-75
2022/04/17 08:41:27;;;;;;;7.03;3.77;;;10.40;61.10;;;;;;5096281;28;20140;-75
2022/04/17 08:43:52;;;;;;;6.77;3.57;;;10.50;61.00;;;;;;5096485;28;20028;-76
2022/04/17 08:46:18;;;;;;;6.67;3.50;;;10.60;61.00;;;;;;5096237;28;20051;-74
2022/04/17 08:48:44;;;;;;;6.30;2.97;;;10.70;60.90;;;;;;5095427;28;20380;-75
2022/04/17 08:51:10;;;;;;;5.27;2.90;;;10.70;60.60;;;;;;5095909;28;20494;-75
2022/04/17 08:53:36;;;;;;;5.30;3.17;;;10.80;60.40;;;;;;5061966;28;20111;-75
2022/04/17 08:56:02;;;;;;;5.60;2.43;;;10.80;60.50;;;;;;5058128;28;20033;-75
2022/04/17 08:58:28;;;;;;;5.80;2.30;;;11.00;60.30;;;;;;5057302;28;20399;-75
2022/04/17 09:00:54;;;;;;;4.75;2.47;;;11.00;60.00;;;;;;5057847;28;20033;-75
2022/04/17 09:03:20;;;;;;;4.57;2.03;;;11.10;59.70;;;;;;5091986;28;20117;-76
2022/04/17 09:05:47;;;;;;;5.72;2.50;;;11.20;58.90;;;;;;5082681;28;20123;-75
2022/04/17 09:08:17;;;;;;;5.18;2.03;;;11.30;58.90;;;;;;5077110;28;20074;-75
2022/04/17 09:10:59;;;;;;;5.95;2.10;;;11.50;58.40;;;;;;5077232;28;20028;-75
2022/04/17 09:13:33;;;;;;;5.38;2.53;;;11.60;58.40;;;;;;5057576;28;20516;-75
2022/04/17 09:16:01;;;;;;;5.53;2.00;;;11.60;58.00;;;;;;5074596;28;20020;-75
2022/04/17 09:18:29;;;;;;;6.25;2.50;;;11.60;57.70;;;;;;5058937;28;20028;-76
2022/04/17 09:20:56;;;;;;;4.18;2.00;;;11.80;57.30;;;;;;5089288;28;20464;-75
2022/04/17 09:23:40;;;;;;;4.35;1.95;;;11.80;57.40;;;;;;5073808;28;20027;-76
2022/04/17 09:26:06;;;;;;;;;;;12.00;57.00;;;;;;5057273;28;20047;-75
2022/04/17 09:28:33;;;;;;;5.93;1.92;;;12.10;56.60;;;;;;5094437;28;19943;-75
2022/04/17 09:31:01;;;;;;;5.15;2.05;;;12.10;56.50;;;;;;5076342;28;20340;-74
2022/04/17 09:33:36;;;;;;;6.60;2.33;;;12.20;56.50;;;;;;5070981;28;20044;-75
2022/04/17 09:36:02;;;;;;;5.22;2.10;;;12.30;56.40;;;;;;5092600;28;20018;-75
2022/04/17 09:38:32;;;;;;;4.70;2.28;;;12.40;56.40;;;;;;5076342;28;20115;-75
2022/04/17 09:41:17;;;;;;;3.50;1.83;;;12.50;56.40;;;;;;5074292;28;20042;-75
2022/04/17 09:43:43;;;;;;;5.82;1.75;;;12.60;56.90;;;;;;5074608;28;20472;-75
2022/04/17 09:46:10;;;;;;;7.90;2.13;;;12.70;56.00;;;;;;5059470;28;20059;-76
2022/04/17 09:48:45;;;;;;;4.75;2.35;;;12.70;55.60;;;;;;5094080;28;20032;-74
2022/04/17 09:51:24;;;;;;;4.55;2.00;;;12.70;55.30;;;;;;5093257;28;20032;-75
2022/04/17 09:54:05;;;;;;;6.35;2.08;;;12.80;55.20;;;;;;5059600;28;20426;-74
2022/04/17 09:56:40;;;;;;;4.63;1.95;;;12.90;55.30;;;;;;5075867;28;20016;-75
2022/04/17 09:59:23;;;;;;;5.55;2.00;;;13.00;55.00;;;;;;5075928;28;20024;-74
2022/04/17 10:01:50;;;;;;;6.55;2.20;;;13.00;54.90;;;;;;5050725;28;20074;-74
2022/04/17 10:04:19;;;;;;;5.18;1.80;;;13.10;55.10;;;;;;5071150;28;20039;-75
2022/04/17 10:06:47;;;;;;;3.70;1.80;;;13.20;54.90;;;;;;5094001;28;20016;-75
2022/04/17 10:09:13;;;;;;;7.93;2.10;;;13.30;54.90;;;;;;5093592;28;20081;-76
2022/04/17 10:11:40;;;;;;;4.57;1.70;;;13.60;54.90;;;;;;5074414;28;20108;-74
2022/04/17 10:14:06;;;;;;;4.03;1.98;;;13.70;54.60;;;;;;5042366;28;20020;-76
2022/04/17 10:16:34;;;;;;;4.25;1.92;;;13.90;53.90;;;;;;5093677;28;20445;-75
2022/04/17 10:19:11;;;;;;;5.60;1.98;;;14.20;53.40;;;;;;5093741;28;20024;-74
2022/04/17 10:21:39;;;;;;;7.35;2.25;;;14.50;52.70;;;;;;5090216;28;20020;-75
2022/04/17 10:24:06;;;;;;;4.20;1.33;;;14.90;52.30;;;;;;5075409;28;20023;-75
2022/04/17 10:26:37;;;;;;;3.88;1.45;;;15.40;52.90;;;;;;5093462;28;20020;-75
2022/04/17 10:29:08;;;;;;;4.97;1.27;;;15.80;52.70;;;;;;5075855;28;20024;-74
2022/04/17 10:31:49;;;;;;;2.20;0.98;;;16.40;52.40;;;;;;5090231;28;20027;-76
2022/04/17 10:34:35;;;;;;;3.72;1.30;;;17.10;50.80;;;;;;5072551;28;20046;-77
2022/04/17 10:37:19;;;;;;;3.20;1.20;;;17.90;50.50;;;;;;5073388;28;20384;-77
2022/04/17 10:39:53;;;;;;;3.17;1.23;;;18.80;50.00;;;;;;5091910;28;20435;-76
2022/04/17 10:42:19;;;;;;;3.72;1.25;;;19.60;49.10;;;;;;5090140;28;20055;-76
2022/04/17 10:45:01;;;;;;;2.45;1.00;;;20.40;48.70;;;;;;5057110;28;20138;-77
2022/04/17 10:47:27;;;;;;;3.33;1.33;;;21.20;47.70;;;;;;5074029;28;20057;-78
2022/04/17 10:49:56;;;;;;;4.22;1.30;;;22.00;47.40;;;;;;5074848;28;20073;-74
2022/04/17 10:52:27;;;;;;;2.83;1.10;;;22.70;46.40;;;;;;5092705;28;20031;-78
2022/04/17 10:54:53;;;;;;;2.58;1.33;;;23.40;45.00;;;;;;5092480;28;20048;-77
2022/04/17 10:57:26;;;;;;;3.70;1.20;;;24.10;44.40;;;;;;5074375;28;20071;-78
2022/04/17 11:00:24;;;;;;;4.88;1.25;;;24.80;42.20;;;;;;5074863;28;20456;-76
2022/04/17 11:02:50;;;;;;;1.77;0.68;;;25.50;41.20;;;;;;5073214;28;20510;-77
2022/04/17 11:06:09;;;;;;;2.47;1.10;;;26.30;41.50;;;;;;5055598;28;20016;-77
2022/04/17 11:08:24;;;;;;;2.25;0.77;;;26.90;38.70;;;;;;5091478;28;20031;-76
2022/04/17 11:10:57;;;;;;;2.58;1.10;;;27.30;37.80;;;;;;5057394;28;20025;-77
2022/04/17 11:13:26;;;;;;;;;;;27.70;36.00;;;;;;5096631;28;20099;-76
2022/04/17 11:15:55;;;;;;;2.08;0.80;;;27.90;36.60;;;;;;5081336;28;19916;-76
2022/04/17 11:18:24;;;;;;;3.47;1.08;;;27.70;36.80;;;;;;5081178;28;20024;-75
2022/04/17 11:20:54;;;;;;;2.22;0.93;;;27.30;35.80;;;;;;5084110;28;20024;-76
2022/04/17 11:23:47;;;;;;;3.45;1.02;;;27.00;35.30;;;;;;5061553;28;20025;-76
2022/04/17 11:26:13;;;;;;;2.33;0.77;;;26.70;34.80;;;;;;5061785;28;20056;-75
2022/04/17 11:28:39;;;;;;;2.70;1.00;;;26.50;34.70;;;;;;5061673;28;20064;-75
2022/04/17 11:31:04;;;;;;;3.20;1.25;;;26.30;34.00;;;;;;5064285;28;20021;-75
2022/04/17 11:33:30;;;;;;;2.90;1.50;;;26.10;33.60;;;;;;5081443;28;20373;-75
2022/04/17 11:36:00;;;;;;;3.50;1.30;;;25.90;33.30;;;;;;5099943;28;20085;-76
2022/04/17 11:38:26;;;;;;;4.65;1.52;;;25.70;33.30;;;;;;5099808;28;20032;-75
2022/04/17 11:40:52;;;;;;;3.35;1.55;;;25.70;33.30;;;;;;5061376;28;20511;-74
2022/04/17 11:43:19;;;;;;;2.17;1.30;;;25.60;33.10;;;;;;5095040;28;20123;-76
2022/04/17 11:45:46;;;;;;;2.58;1.20;;;25.50;32.80;;;;;;5061991;28;20040;-76
2022/04/17 11:48:14;;;;;;;3.65;1.30;;;25.40;32.90;;;;;;5079417;28;20116;-75
2022/04/17 11:50:41;;;;;;;3.65;1.27;;;25.30;32.90;;;;;;5110972;28;20035;-75
2022/04/17 11:53:12;;;;;;;3.63;1.30;;;25.40;33.00;;;;;;5099317;28;20036;-74
2022/04/17 11:55:41;;;;;;;3.47;1.23;;;25.30;32.80;;;;;;5081187;28;20032;-74
2022/04/17 11:58:25;;;;;;;2.67;0.90;;;25.30;32.70;;;;;;5081648;28;20152;-75
2022/04/17 12:01:03;;;;;;;4.85;1.23;;;25.40;32.50;;;;;;5080971;28;20035;-75
2022/04/17 12:03:58;;;;;;;5.40;1.00;;;25.50;32.50;;;;;;5082202;28;20024;-75
2022/04/17 12:06:32;;;;;;;4.22;1.30;;;25.60;32.00;;;;;;5082317;28;20198;-76
2022/04/17 12:08:57;;;;;;;3.97;1.40;;;25.70;32.20;;;;;;5096073;28;20020;-76
2022/04/17 12:11:23;;;;;;;3.30;1.23;;;25.90;32.20;;;;;;5079310;28;20123;-75
2022/04/17 12:13:55;;;;;;;5.05;1.50;;;26.00;32.10;;;;;;5079391;28;20017;-76
2022/04/17 12:16:20;;;;;;;3.33;1.02;;;26.10;31.70;;;;;;5044541;28;20105;-75
2022/04/17 12:18:55;;;;;;;4.40;1.38;;;26.20;31.50;;;;;;5064814;28;20103;-75
2022/04/17 12:21:28;;;;;;;3.42;1.10;;;26.20;31.00;;;;;;5078188;28;20391;-74
2022/04/17 12:23:54;;;;;;;3.45;1.13;;;26.30;30.90;;;;;;5074935;28;20111;-74
2022/04/17 12:26:20;;;;;;;2.35;1.00;;;26.20;30.90;;;;;;5078948;28;20127;-75
2022/04/17 12:28:46;;;;;;;3.65;1.10;;;26.20;30.90;;;;;;5057557;28;20028;-76
2022/04/17 12:31:15;;;;;;;4.20;1.30;;;26.30;30.80;;;;;;5075429;28;20040;-76
2022/04/17 12:33:41;;;;;;;3.80;1.33;;;26.30;31.50;;;;;;5041072;28;20024;-75
2022/04/17 12:36:14;;;;;;;3.08;1.30;;;26.30;30.90;;;;;;5057688;28;20024;-74
2022/04/17 12:38:40;;;;;;;;;;;26.40;30.80;;;;;;5080841;28;20035;-77
2022/04/17 12:41:26;;;;;;;2.67;0.90;;;26.40;30.60;;;;;;5073695;28;19954;-75
2022/04/17 12:43:52;;;;;;;4.65;1.38;;;26.30;30.90;;;;;;5057794;28;20044;-76
2022/04/17 12:46:31;;;;;;;4.78;1.35;;;26.30;31.00;;;;;;5057474;28;20048;-75
2022/04/17 12:49:02;;;;;;;4.68;1.40;;;26.50;31.00;;;;;;5059590;28;20025;-76
2022/04/17 12:51:28;;;;;;;5.95;0.90;;;26.50;31.00;;;;;;5057615;28;20024;-75
2022/04/17 12:53:55;;;;;;;3.78;0.90;;;26.60;31.50;;;;;;5057814;28;20036;-79
2022/04/17 12:56:25;;;;;;;5.05;1.00;;;26.60;32.60;;;;;;5057451;28;20037;-76
2022/04/17 12:58:55;;;;;;;4.10;0.80;;;26.70;33.30;;;;;;5079188;28;20034;-76
2022/04/17 13:01:30;;;;;;;3.20;1.15;;;26.50;34.20;;;;;;5075873;28;20032;-74
2022/04/17 13:04:20;;;;;;;3.47;1.40;;;26.30;34.20;;;;;;5095601;28;20028;-76
2022/04/17 13:07:09;;;;;;;4.53;1.33;;;26.40;33.50;;;;;;5077205;28;20032;-76